sensor_id;sensor_type;location;lat;lon;timestamp;P1;durP1;ratioP1;P2;durP2;ratioP2
62332;SDS011;48624;49.812;8.562;2024-01-30T00:02:12;28.87;;;18.00;;
62332;SDS011;48624;49.812;8.562;2024-01-30T00:04:37;25.13;;;17.03;;
62332;SDS011;48624;49.812;8.562;2024-01-30T00:07:03;25.83;;;17.17;;
62332;SDS011;48624;49.812;8.562;2024-01-30T00:09:28;29.70;;;19.60;;
62332;SDS011;48624;49.812;8.562;2024-01-30T00:11:54;28.53;;;18.73;;
62332;SDS011;48624;49.812;8.562;2024-01-30T00:14:19;30.70;;;18.90;;
62332;SDS011;48624;49.812;8.562;2024-01-30T00:16:44;29.67;;;18.13;;
62332;SDS011;48624;49.812;8.562;2024-01-30T00:19:10;27.00;;;16.87;;
62332;SDS011;48624;49.812;8.562;2024-01-30T00:21:35;24.97;;;16.10;;
62332;SDS011;48624;49.812;8.562;2024-01-30T00:24:02;22.20;;;15.13;;
62332;SDS011;48624;49.812;8.562;2024-01-30T00:26:27;26.73;;;15.20;;
62332;SDS011;48624;49.812;8.562;2024-01-30T00:28:52;24.10;;;14.93;;
62332;SDS011;48624;49.812;8.562;2024-01-30T00:31:18;22.30;;;13.20;;
62332;SDS011;48624;49.812;8.562;2024-01-30T00:33:43;23.93;;;14.60;;
62332;SDS011;48624;49.812;8.562;2024-01-30T00:36:09;21.10;;;13.60;;
62332;SDS011;48624;49.812;8.562;2024-01-30T00:38:34;23.77;;;14.77;;
62332;SDS011;48624;49.812;8.562;2024-01-30T00:41:00;21.23;;;14.80;;
62332;SDS011;48624;49.812;8.562;2024-01-30T00:43:27;25.47;;;15.53;;
62332;SDS011;48624;49.812;8.562;2024-01-30T00:45:52;22.23;;;15.00;;
62332;SDS011;48624;49.812;8.562;2024-01-30T00:48:18;24.00;;;14.50;;
62332;SDS011;48624;49.812;8.562;2024-01-30T00:50:43;23.93;;;15.60;;
62332;SDS011;48624;49.812;8.562;2024-01-30T00:53:08;19.43;;;14.67;;
62332;SDS011;48624;49.812;8.562;2024-01-30T00:55:33;19.87;;;13.10;;
62332;SDS011;48624;49.812;8.562;2024-01-30T00:57:59;19.87;;;13.87;;
62332;SDS011;48624;49.812;8.562;2024-01-30T01:00:24;23.70;;;15.03;;
62332;SDS011;48624;49.812;8.562;2024-01-30T01:02:54;18.03;;;14.20;;
62332;SDS011;48624;49.812;8.562;2024-01-30T01:05:22;20.93;;;15.33;;
62332;SDS011;48624;49.812;8.562;2024-01-30T01:07:47;23.30;;;15.50;;
62332;SDS011;48624;49.812;8.562;2024-01-30T01:10:13;21.50;;;14.93;;
62332;SDS011;48624;49.812;8.562;2024-01-30T01:12:39;25.83;;;15.90;;
62332;SDS011;48624;49.812;8.562;2024-01-30T01:15:05;22.83;;;15.17;;
62332;SDS011;48624;49.812;8.562;2024-01-30T01:17:30;25.90;;;15.30;;
62332;SDS011;48624;49.812;8.562;2024-01-30T01:19:56;23.33;;;15.27;;
62332;SDS011;48624;49.812;8.562;2024-01-30T01:22:22;22.37;;;16.27;;
62332;SDS011;48624;49.812;8.562;2024-01-30T01:24:47;25.03;;;16.43;;
62332;SDS011;48624;49.812;8.562;2024-01-30T01:27:13;24.57;;;15.50;;
62332;SDS011;48624;49.812;8.562;2024-01-30T01:29:38;24.80;;;16.70;;
62332;SDS011;48624;49.812;8.562;2024-01-30T01:32:03;24.40;;;15.43;;
62332;SDS011;48624;49.812;8.562;2024-01-30T01:34:29;21.40;;;15.57;;
62332;SDS011;48624;49.812;8.562;2024-01-30T01:36:54;22.93;;;15.80;;
62332;SDS011;48624;49.812;8.562;2024-01-30T01:39:20;24.83;;;16.50;;
62332;SDS011;48624;49.812;8.562;2024-01-30T01:41:45;26.30;;;17.13;;
62332;SDS011;48624;49.812;8.562;2024-01-30T01:44:11;25.70;;;16.67;;
62332;SDS011;48624;49.812;8.562;2024-01-30T01:46:36;23.50;;;16.30;;
62332;SDS011;48624;49.812;8.562;2024-01-30T01:49:02;26.83;;;15.90;;
62332;SDS011;48624;49.812;8.562;2024-01-30T01:51:29;26.03;;;16.80;;
62332;SDS011;48624;49.812;8.562;2024-01-30T01:53:56;29.17;;;18.43;;
62332;SDS011;48624;49.812;8.562;2024-01-30T01:56:23;22.33;;;15.27;;
62332;SDS011;48624;49.812;8.562;2024-01-30T01:58:49;25.50;;;17.80;;
62332;SDS011;48624;49.812;8.562;2024-01-30T02:01:18;26.00;;;17.30;;
62332;SDS011;48624;49.812;8.562;2024-01-30T02:03:45;23.03;;;15.13;;
62332;SDS011;48624;49.812;8.562;2024-01-30T02:06:11;23.03;;;16.47;;
62332;SDS011;48624;49.812;8.562;2024-01-30T02:08:37;22.13;;;16.07;;
62332;SDS011;48624;49.812;8.562;2024-01-30T02:11:03;27.53;;;18.93;;
62332;SDS011;48624;49.812;8.562;2024-01-30T02:13:28;25.80;;;18.50;;
62332;SDS011;48624;49.812;8.562;2024-01-30T02:15:54;26.80;;;17.23;;
62332;SDS011;48624;49.812;8.562;2024-01-30T02:18:19;24.27;;;16.23;;
62332;SDS011;48624;49.812;8.562;2024-01-30T02:20:46;32.63;;;16.83;;
62332;SDS011;48624;49.812;8.562;2024-01-30T02:23:12;26.83;;;16.97;;
62332;SDS011;48624;49.812;8.562;2024-01-30T02:25:40;27.33;;;16.63;;
62332;SDS011;48624;49.812;8.562;2024-01-30T02:28:09;20.87;;;14.97;;
62332;SDS011;48624;49.812;8.562;2024-01-30T02:30:36;24.20;;;14.87;;
62332;SDS011;48624;49.812;8.562;2024-01-30T02:33:01;22.37;;;14.13;;
62332;SDS011;48624;49.812;8.562;2024-01-30T02:35:28;23.47;;;15.50;;
62332;SDS011;48624;49.812;8.562;2024-01-30T02:37:53;24.73;;;15.93;;
62332;SDS011;48624;49.812;8.562;2024-01-30T02:40:18;23.93;;;15.37;;
62332;SDS011;48624;49.812;8.562;2024-01-30T02:42:44;22.07;;;15.63;;
62332;SDS011;48624;49.812;8.562;2024-01-30T02:45:09;29.47;;;16.37;;
62332;SDS011;48624;49.812;8.562;2024-01-30T02:47:35;24.73;;;15.80;;
62332;SDS011;48624;49.812;8.562;2024-01-30T02:50:00;24.63;;;15.67;;
62332;SDS011;48624;49.812;8.562;2024-01-30T02:52:25;22.90;;;16.00;;
62332;SDS011;48624;49.812;8.562;2024-01-30T02:54:51;23.03;;;15.77;;
62332;SDS011;48624;49.812;8.562;2024-01-30T02:57:16;24.27;;;16.60;;
62332;SDS011;48624;49.812;8.562;2024-01-30T02:59:41;22.87;;;14.67;;
62332;SDS011;48624;49.812;8.562;2024-01-30T03:02:08;25.60;;;17.00;;
62332;SDS011;48624;49.812;8.562;2024-01-30T03:04:33;26.30;;;16.33;;
62332;SDS011;48624;49.812;8.562;2024-01-30T03:06:58;27.20;;;17.33;;
62332;SDS011;48624;49.812;8.562;2024-01-30T03:09:23;24.33;;;16.83;;
62332;SDS011;48624;49.812;8.562;2024-01-30T03:11:49;26.57;;;16.13;;
62332;SDS011;48624;49.812;8.562;2024-01-30T03:14:14;24.37;;;16.70;;
62332;SDS011;48624;49.812;8.562;2024-01-30T03:16:39;23.67;;;15.43;;
62332;SDS011;48624;49.812;8.562;2024-01-30T03:19:08;24.17;;;16.47;;
62332;SDS011;48624;49.812;8.562;2024-01-30T03:21:34;27.53;;;16.30;;
62332;SDS011;48624;49.812;8.562;2024-01-30T03:23:59;25.47;;;16.63;;
62332;SDS011;48624;49.812;8.562;2024-01-30T03:26:24;21.77;;;14.90;;
62332;SDS011;48624;49.812;8.562;2024-01-30T03:28:50;23.93;;;15.73;;
62332;SDS011;48624;49.812;8.562;2024-01-30T03:31:15;27.23;;;16.17;;
62332;SDS011;48624;49.812;8.562;2024-01-30T03:33:41;24.90;;;16.77;;
62332;SDS011;48624;49.812;8.562;2024-01-30T03:36:06;20.97;;;15.43;;
62332;SDS011;48624;49.812;8.562;2024-01-30T03:38:32;21.20;;;15.20;;
62332;SDS011;48624;49.812;8.562;2024-01-30T03:40:58;25.63;;;16.07;;
62332;SDS011;48624;49.812;8.562;2024-01-30T03:43:24;22.37;;;15.70;;
62332;SDS011;48624;49.812;8.562;2024-01-30T03:45:49;27.50;;;16.00;;
62332;SDS011;48624;49.812;8.562;2024-01-30T03:48:14;24.50;;;16.47;;
62332;SDS011;48624;49.812;8.562;2024-01-30T03:50:40;23.73;;;15.67;;
62332;SDS011;48624;49.812;8.562;2024-01-30T03:53:05;23.57;;;15.13;;
62332;SDS011;48624;49.812;8.562;2024-01-30T03:55:30;23.63;;;16.27;;
62332;SDS011;48624;49.812;8.562;2024-01-30T03:57:56;21.70;;;16.47;;
62332;SDS011;48624;49.812;8.562;2024-01-30T04:00:21;27.03;;;17.87;;
62332;SDS011;48624;49.812;8.562;2024-01-30T04:02:46;26.23;;;15.50;;
62332;SDS011;48624;49.812;8.562;2024-01-30T04:05:11;24.33;;;15.13;;
62332;SDS011;48624;49.812;8.562;2024-01-30T04:07:37;25.13;;;15.27;;
62332;SDS011;48624;49.812;8.562;2024-01-30T04:10:02;22.80;;;16.97;;
62332;SDS011;48624;49.812;8.562;2024-01-30T04:12:30;23.17;;;15.50;;
62332;SDS011;48624;49.812;8.562;2024-01-30T04:14:56;29.10;;;15.87;;
62332;SDS011;48624;49.812;8.562;2024-01-30T04:17:21;19.87;;;15.07;;
62332;SDS011;48624;49.812;8.562;2024-01-30T04:19:46;22.13;;;15.00;;
62332;SDS011;48624;49.812;8.562;2024-01-30T04:22:11;25.57;;;15.97;;
62332;SDS011;48624;49.812;8.562;2024-01-30T04:24:37;23.10;;;15.77;;
62332;SDS011;48624;49.812;8.562;2024-01-30T04:27:02;25.73;;;15.37;;
62332;SDS011;48624;49.812;8.562;2024-01-30T04:29:27;21.17;;;14.23;;
62332;SDS011;48624;49.812;8.562;2024-01-30T04:31:53;26.07;;;15.50;;
62332;SDS011;48624;49.812;8.562;2024-01-30T04:34:18;20.20;;;14.27;;
62332;SDS011;48624;49.812;8.562;2024-01-30T04:36:46;23.47;;;14.87;;
62332;SDS011;48624;49.812;8.562;2024-01-30T04:39:11;20.47;;;15.70;;
62332;SDS011;48624;49.812;8.562;2024-01-30T04:41:37;21.37;;;14.67;;
62332;SDS011;48624;49.812;8.562;2024-01-30T04:44:03;20.83;;;13.67;;
62332;SDS011;48624;49.812;8.562;2024-01-30T04:46:28;22.73;;;15.23;;
62332;SDS011;48624;49.812;8.562;2024-01-30T04:48:53;25.00;;;15.73;;
62332;SDS011;48624;49.812;8.562;2024-01-30T04:51:20;20.67;;;14.80;;
62332;SDS011;48624;49.812;8.562;2024-01-30T04:53:45;23.03;;;16.17;;
62332;SDS011;48624;49.812;8.562;2024-01-30T04:56:10;23.43;;;15.77;;
62332;SDS011;48624;49.812;8.562;2024-01-30T04:58:36;23.97;;;15.60;;
62332;SDS011;48624;49.812;8.562;2024-01-30T05:01:01;25.07;;;15.60;;
62332;SDS011;48624;49.812;8.562;2024-01-30T05:03:27;27.50;;;17.63;;
62332;SDS011;48624;49.812;8.562;2024-01-30T05:05:52;23.23;;;15.70;;
62332;SDS011;48624;49.812;8.562;2024-01-30T05:08:20;23.13;;;15.07;;
62332;SDS011;48624;49.812;8.562;2024-01-30T05:10:45;20.13;;;14.50;;
62332;SDS011;48624;49.812;8.562;2024-01-30T05:13:11;24.57;;;16.10;;
62332;SDS011;48624;49.812;8.562;2024-01-30T05:15:38;23.90;;;15.13;;
62332;SDS011;48624;49.812;8.562;2024-01-30T05:18:04;27.00;;;15.70;;
62332;SDS011;48624;49.812;8.562;2024-01-30T05:20:30;24.10;;;15.10;;
62332;SDS011;48624;49.812;8.562;2024-01-30T05:22:56;21.17;;;15.57;;
62332;SDS011;48624;49.812;8.562;2024-01-30T05:25:21;23.47;;;14.57;;
62332;SDS011;48624;49.812;8.562;2024-01-30T05:27:46;28.50;;;18.10;;
62332;SDS011;48624;49.812;8.562;2024-01-30T05:30:12;21.97;;;13.37;;
62332;SDS011;48624;49.812;8.562;2024-01-30T05:32:37;23.43;;;16.23;;
62332;SDS011;48624;49.812;8.562;2024-01-30T05:35:03;24.63;;;16.10;;
62332;SDS011;48624;49.812;8.562;2024-01-30T05:37:29;26.60;;;16.53;;
62332;SDS011;48624;49.812;8.562;2024-01-30T05:39:54;27.33;;;16.60;;
62332;SDS011;48624;49.812;8.562;2024-01-30T05:42:19;22.83;;;15.93;;
62332;SDS011;48624;49.812;8.562;2024-01-30T05:44:44;21.43;;;15.90;;
62332;SDS011;48624;49.812;8.562;2024-01-30T05:47:10;22.93;;;15.67;;
62332;SDS011;48624;49.812;8.562;2024-01-30T05:49:35;27.97;;;17.90;;
62332;SDS011;48624;49.812;8.562;2024-01-30T05:52:02;28.30;;;19.70;;
62332;SDS011;48624;49.812;8.562;2024-01-30T05:54:28;29.90;;;19.60;;
62332;SDS011;48624;49.812;8.562;2024-01-30T05:56:54;30.67;;;18.63;;
62332;SDS011;48624;49.812;8.562;2024-01-30T05:59:19;31.13;;;19.67;;
62332;SDS011;48624;49.812;8.562;2024-01-30T06:01:47;34.50;;;21.23;;
62332;SDS011;48624;49.812;8.562;2024-01-30T06:04:13;32.27;;;17.87;;
62332;SDS011;48624;49.812;8.562;2024-01-30T06:06:39;28.43;;;20.53;;
62332;SDS011;48624;49.812;8.562;2024-01-30T06:09:05;32.53;;;18.87;;
62332;SDS011;48624;49.812;8.562;2024-01-30T06:11:30;26.60;;;16.77;;
62332;SDS011;48624;49.812;8.562;2024-01-30T06:13:55;28.20;;;19.20;;
62332;SDS011;48624;49.812;8.562;2024-01-30T06:16:21;29.00;;;17.70;;
62332;SDS011;48624;49.812;8.562;2024-01-30T06:18:47;28.53;;;18.33;;
62332;SDS011;48624;49.812;8.562;2024-01-30T06:21:13;33.33;;;18.17;;
62332;SDS011;48624;49.812;8.562;2024-01-30T06:23:38;20.97;;;15.07;;
62332;SDS011;48624;49.812;8.562;2024-01-30T06:26:04;24.53;;;15.70;;
62332;SDS011;48624;49.812;8.562;2024-01-30T06:28:31;26.03;;;18.23;;
62332;SDS011;48624;49.812;8.562;2024-01-30T06:30:56;24.93;;;16.80;;
62332;SDS011;48624;49.812;8.562;2024-01-30T06:33:22;25.30;;;15.97;;
62332;SDS011;48624;49.812;8.562;2024-01-30T06:35:47;27.80;;;16.30;;
62332;SDS011;48624;49.812;8.562;2024-01-30T06:38:13;25.87;;;16.60;;
62332;SDS011;48624;49.812;8.562;2024-01-30T06:40:40;30.50;;;20.07;;
62332;SDS011;48624;49.812;8.562;2024-01-30T06:43:05;26.63;;;18.87;;
62332;SDS011;48624;49.812;8.562;2024-01-30T06:45:31;29.23;;;16.77;;
62332;SDS011;48624;49.812;8.562;2024-01-30T06:47:56;31.97;;;19.03;;
62332;SDS011;48624;49.812;8.562;2024-01-30T06:50:21;28.87;;;18.87;;
62332;SDS011;48624;49.812;8.562;2024-01-30T06:52:46;34.83;;;20.53;;
62332;SDS011;48624;49.812;8.562;2024-01-30T06:55:12;32.97;;;18.43;;
62332;SDS011;48624;49.812;8.562;2024-01-30T06:57:37;31.77;;;18.63;;
62332;SDS011;48624;49.812;8.562;2024-01-30T07:00:02;31.97;;;18.63;;
62332;SDS011;48624;49.812;8.562;2024-01-30T07:02:28;30.83;;;19.33;;
62332;SDS011;48624;49.812;8.562;2024-01-30T07:04:53;33.60;;;20.63;;
62332;SDS011;48624;49.812;8.562;2024-01-30T07:07:19;31.80;;;19.40;;
62332;SDS011;48624;49.812;8.562;2024-01-30T07:09:44;25.87;;;18.10;;
62332;SDS011;48624;49.812;8.562;2024-01-30T07:12:09;28.67;;;18.20;;
62332;SDS011;48624;49.812;8.562;2024-01-30T07:14:35;32.83;;;17.63;;
62332;SDS011;48624;49.812;8.562;2024-01-30T07:17:00;28.37;;;17.03;;
62332;SDS011;48624;49.812;8.562;2024-01-30T07:19:26;32.23;;;19.80;;
62332;SDS011;48624;49.812;8.562;2024-01-30T07:21:51;31.03;;;19.20;;
62332;SDS011;48624;49.812;8.562;2024-01-30T07:24:16;29.90;;;19.63;;
62332;SDS011;48624;49.812;8.562;2024-01-30T07:26:41;31.80;;;21.03;;
62332;SDS011;48624;49.812;8.562;2024-01-30T07:29:07;31.53;;;21.03;;
62332;SDS011;48624;49.812;8.562;2024-01-30T07:31:32;36.93;;;25.13;;
62332;SDS011;48624;49.812;8.562;2024-01-30T07:33:57;34.03;;;22.00;;
62332;SDS011;48624;49.812;8.562;2024-01-30T07:36:23;33.80;;;22.40;;
62332;SDS011;48624;49.812;8.562;2024-01-30T07:38:48;35.53;;;22.10;;
62332;SDS011;48624;49.812;8.562;2024-01-30T07:41:13;36.10;;;20.87;;
62332;SDS011;48624;49.812;8.562;2024-01-30T07:43:38;33.53;;;20.53;;
62332;SDS011;48624;49.812;8.562;2024-01-30T07:46:05;30.70;;;20.43;;
62332;SDS011;48624;49.812;8.562;2024-01-30T07:48:31;32.07;;;20.37;;
62332;SDS011;48624;49.812;8.562;2024-01-30T07:50:58;28.03;;;18.83;;
62332;SDS011;48624;49.812;8.562;2024-01-30T07:53:24;27.40;;;20.50;;
62332;SDS011;48624;49.812;8.562;2024-01-30T07:55:51;35.93;;;22.77;;
62332;SDS011;48624;49.812;8.562;2024-01-30T07:58:17;29.43;;;21.00;;
62332;SDS011;48624;49.812;8.562;2024-01-30T08:00:42;29.13;;;19.77;;
62332;SDS011;48624;49.812;8.562;2024-01-30T08:03:07;27.53;;;19.00;;
62332;SDS011;48624;49.812;8.562;2024-01-30T08:05:33;27.70;;;19.10;;
62332;SDS011;48624;49.812;8.562;2024-01-30T08:07:58;28.07;;;19.07;;
62332;SDS011;48624;49.812;8.562;2024-01-30T08:10:23;33.00;;;20.27;;
62332;SDS011;48624;49.812;8.562;2024-01-30T08:12:49;31.00;;;20.37;;
62332;SDS011;48624;49.812;8.562;2024-01-30T08:15:14;24.30;;;18.20;;
62332;SDS011;48624;49.812;8.562;2024-01-30T08:17:39;26.63;;;17.97;;
62332;SDS011;48624;49.812;8.562;2024-01-30T08:20:05;31.63;;;21.87;;
62332;SDS011;48624;49.812;8.562;2024-01-30T08:22:32;31.50;;;21.60;;
62332;SDS011;48624;49.812;8.562;2024-01-30T08:24:57;30.10;;;21.03;;
62332;SDS011;48624;49.812;8.562;2024-01-30T08:27:22;34.27;;;25.80;;
62332;SDS011;48624;49.812;8.562;2024-01-30T08:29:47;35.33;;;25.33;;
62332;SDS011;48624;49.812;8.562;2024-01-30T08:32:13;35.97;;;25.30;;
62332;SDS011;48624;49.812;8.562;2024-01-30T08:34:38;37.13;;;23.20;;
62332;SDS011;48624;49.812;8.562;2024-01-30T08:37:03;41.60;;;27.70;;
62332;SDS011;48624;49.812;8.562;2024-01-30T08:39:29;45.33;;;33.33;;
62332;SDS011;48624;49.812;8.562;2024-01-30T08:41:55;44.63;;;32.90;;
62332;SDS011;48624;49.812;8.562;2024-01-30T08:44:20;38.67;;;28.00;;
62332;SDS011;48624;49.812;8.562;2024-01-30T08:46:45;42.17;;;29.57;;
62332;SDS011;48624;49.812;8.562;2024-01-30T08:49:11;51.97;;;32.10;;
62332;SDS011;48624;49.812;8.562;2024-01-30T08:51:40;41.57;;;29.17;;
62332;SDS011;48624;49.812;8.562;2024-01-30T08:54:05;40.90;;;27.67;;
62332;SDS011;48624;49.812;8.562;2024-01-30T08:56:30;35.60;;;26.63;;
62332;SDS011;48624;49.812;8.562;2024-01-30T08:58:56;37.40;;;26.17;;
62332;SDS011;48624;49.812;8.562;2024-01-30T09:01:21;36.17;;;25.10;;
62332;SDS011;48624;49.812;8.562;2024-01-30T09:03:46;37.73;;;24.97;;
62332;SDS011;48624;49.812;8.562;2024-01-30T09:06:12;34.43;;;24.93;;
62332;SDS011;48624;49.812;8.562;2024-01-30T09:08:37;34.07;;;24.33;;
62332;SDS011;48624;49.812;8.562;2024-01-30T09:11:11;34.57;;;25.03;;
62332;SDS011;48624;49.812;8.562;2024-01-30T09:13:37;34.17;;;24.30;;
62332;SDS011;48624;49.812;8.562;2024-01-30T09:16:02;37.47;;;25.17;;
62332;SDS011;48624;49.812;8.562;2024-01-30T09:18:28;32.93;;;23.20;;
62332;SDS011;48624;49.812;8.562;2024-01-30T09:20:53;34.57;;;23.53;;
62332;SDS011;48624;49.812;8.562;2024-01-30T09:23:18;30.40;;;22.17;;
62332;SDS011;48624;49.812;8.562;2024-01-30T09:25:44;33.67;;;22.60;;
62332;SDS011;48624;49.812;8.562;2024-01-30T09:28:10;29.58;;;23.08;;
62332;SDS011;48624;49.812;8.562;2024-01-30T09:30:35;32.20;;;20.67;;
62332;SDS011;48624;49.812;8.562;2024-01-30T09:33:01;30.23;;;20.58;;
62332;SDS011;48624;49.812;8.562;2024-01-30T09:35:26;31.50;;;21.70;;
62332;SDS011;48624;49.812;8.562;2024-01-30T09:37:51;26.98;;;19.13;;
62332;SDS011;48624;49.812;8.562;2024-01-30T09:40:17;32.45;;;21.15;;
62332;SDS011;48624;49.812;8.562;2024-01-30T09:42:44;26.87;;;21.13;;
62332;SDS011;48624;49.812;8.562;2024-01-30T09:45:15;33.17;;;23.17;;
62332;SDS011;48624;49.812;8.562;2024-01-30T09:47:44;30.90;;;21.70;;
62332;SDS011;48624;49.812;8.562;2024-01-30T09:50:13;31.23;;;21.92;;
62332;SDS011;48624;49.812;8.562;2024-01-30T09:52:39;34.10;;;22.57;;
62332;SDS011;48624;49.812;8.562;2024-01-30T09:55:05;30.85;;;21.63;;
62332;SDS011;48624;49.812;8.562;2024-01-30T09:57:32;34.42;;;23.27;;
62332;SDS011;48624;49.812;8.562;2024-01-30T09:59:57;30.15;;;21.98;;
62332;SDS011;48624;49.812;8.562;2024-01-30T10:02:22;28.40;;;20.48;;
62332;SDS011;48624;49.812;8.562;2024-01-30T10:04:48;28.83;;;20.55;;
62332;SDS011;48624;49.812;8.562;2024-01-30T10:07:14;26.48;;;21.02;;
62332;SDS011;48624;49.812;8.562;2024-01-30T10:09:40;28.95;;;21.55;;
62332;SDS011;48624;49.812;8.562;2024-01-30T10:12:05;26.98;;;19.35;;
62332;SDS011;48624;49.812;8.562;2024-01-30T10:14:31;26.13;;;21.27;;
62332;SDS011;48624;49.812;8.562;2024-01-30T10:17:00;27.85;;;21.85;;
62332;SDS011;48624;49.812;8.562;2024-01-30T10:19:26;27.25;;;21.15;;
62332;SDS011;48624;49.812;8.562;2024-01-30T10:21:52;31.35;;;21.23;;
62332;SDS011;48624;49.812;8.562;2024-01-30T10:24:18;28.60;;;20.80;;
62332;SDS011;48624;49.812;8.562;2024-01-30T10:26:43;26.85;;;20.15;;
62332;SDS011;48624;49.812;8.562;2024-01-30T10:29:09;22.88;;;19.30;;
62332;SDS011;48624;49.812;8.562;2024-01-30T10:31:34;28.27;;;21.65;;
62332;SDS011;48624;49.812;8.562;2024-01-30T10:34:00;28.90;;;21.70;;
62332;SDS011;48624;49.812;8.562;2024-01-30T10:36:28;29.20;;;19.45;;
62332;SDS011;48624;49.812;8.562;2024-01-30T10:38:59;25.48;;;19.15;;
62332;SDS011;48624;49.812;8.562;2024-01-30T10:41:27;30.38;;;20.70;;
62332;SDS011;48624;49.812;8.562;2024-01-30T10:44:08;28.92;;;21.00;;
62332;SDS011;48624;49.812;8.562;2024-01-30T10:46:35;31.17;;;20.42;;
62332;SDS011;48624;49.812;8.562;2024-01-30T10:49:02;23.08;;;18.38;;
62332;SDS011;48624;49.812;8.562;2024-01-30T10:51:28;24.52;;;17.85;;
62332;SDS011;48624;49.812;8.562;2024-01-30T10:53:55;24.55;;;19.20;;
62332;SDS011;48624;49.812;8.562;2024-01-30T10:56:21;23.20;;;17.17;;
62332;SDS011;48624;49.812;8.562;2024-01-30T10:58:50;20.95;;;17.23;;
62332;SDS011;48624;49.812;8.562;2024-01-30T11:01:19;26.42;;;17.23;;
62332;SDS011;48624;49.812;8.562;2024-01-30T11:03:51;24.75;;;20.92;;
62332;SDS011;48624;49.812;8.562;2024-01-30T11:06:18;21.60;;;15.25;;
62332;SDS011;48624;49.812;8.562;2024-01-30T11:08:45;20.15;;;15.07;;
62332;SDS011;48624;49.812;8.562;2024-01-30T11:11:10;23.88;;;18.50;;
62332;SDS011;48624;49.812;8.562;2024-01-30T11:13:36;26.20;;;19.27;;
62332;SDS011;48624;49.812;8.562;2024-01-30T11:16:02;22.23;;;16.35;;
62332;SDS011;48624;49.812;8.562;2024-01-30T11:18:32;22.80;;;15.25;;
62332;SDS011;48624;49.812;8.562;2024-01-30T11:21:00;21.23;;;15.48;;
62332;SDS011;48624;49.812;8.562;2024-01-30T11:23:27;18.88;;;13.65;;
62332;SDS011;48624;49.812;8.562;2024-01-30T11:25:53;16.92;;;13.07;;
62332;SDS011;48624;49.812;8.562;2024-01-30T11:28:20;17.02;;;13.18;;
62332;SDS011;48624;49.812;8.562;2024-01-30T11:30:47;18.02;;;13.82;;
62332;SDS011;48624;49.812;8.562;2024-01-30T11:33:16;32.08;;;20.35;;
62332;SDS011;48624;49.812;8.562;2024-01-30T11:35:53;19.48;;;14.85;;
62332;SDS011;48624;49.812;8.562;2024-01-30T11:38:19;15.38;;;11.00;;
62332;SDS011;48624;49.812;8.562;2024-01-30T11:40:44;15.05;;;13.02;;
62332;SDS011;48624;49.812;8.562;2024-01-30T11:43:10;15.48;;;11.80;;
62332;SDS011;48624;49.812;8.562;2024-01-30T11:45:38;17.25;;;11.75;;
62332;SDS011;48624;49.812;8.562;2024-01-30T11:48:04;16.13;;;11.00;;
62332;SDS011;48624;49.812;8.562;2024-01-30T11:50:30;14.68;;;10.43;;
62332;SDS011;48624;49.812;8.562;2024-01-30T11:52:56;16.15;;;11.50;;
62332;SDS011;48624;49.812;8.562;2024-01-30T11:55:23;14.82;;;11.98;;
62332;SDS011;48624;49.812;8.562;2024-01-30T11:57:48;12.95;;;10.50;;
62332;SDS011;48624;49.812;8.562;2024-01-30T12:00:14;13.68;;;11.43;;
62332;SDS011;48624;49.812;8.562;2024-01-30T12:02:40;14.88;;;10.73;;
62332;SDS011;48624;49.812;8.562;2024-01-30T12:05:06;12.63;;;9.25;;
62332;SDS011;48624;49.812;8.562;2024-01-30T12:07:32;14.98;;;11.25;;
62332;SDS011;48624;49.812;8.562;2024-01-30T12:09:59;12.52;;;8.98;;
62332;SDS011;48624;49.812;8.562;2024-01-30T12:12:25;12.05;;;9.65;;
62332;SDS011;48624;49.812;8.562;2024-01-30T12:14:53;14.38;;;8.55;;
62332;SDS011;48624;49.812;8.562;2024-01-30T12:17:31;13.35;;;7.97;;
62332;SDS011;48624;49.812;8.562;2024-01-30T12:20:07;11.85;;;9.05;;
62332;SDS011;48624;49.812;8.562;2024-01-30T12:22:40;12.75;;;8.95;;
62332;SDS011;48624;49.812;8.562;2024-01-30T12:25:08;12.27;;;8.70;;
62332;SDS011;48624;49.812;8.562;2024-01-30T12:27:38;11.68;;;9.15;;
62332;SDS011;48624;49.812;8.562;2024-01-30T12:30:07;13.13;;;9.77;;
62332;SDS011;48624;49.812;8.562;2024-01-30T12:32:37;15.15;;;9.68;;
62332;SDS011;48624;49.812;8.562;2024-01-30T12:35:05;17.95;;;10.77;;
62332;SDS011;48624;49.812;8.562;2024-01-30T12:37:32;14.75;;;10.27;;
62332;SDS011;48624;49.812;8.562;2024-01-30T12:39:58;10.98;;;9.85;;
62332;SDS011;48624;49.812;8.562;2024-01-30T12:42:23;14.55;;;10.80;;
62332;SDS011;48624;49.812;8.562;2024-01-30T12:44:49;12.93;;;10.38;;
62332;SDS011;48624;49.812;8.562;2024-01-30T12:47:15;14.13;;;10.27;;
62332;SDS011;48624;49.812;8.562;2024-01-30T12:49:43;11.98;;;10.40;;
62332;SDS011;48624;49.812;8.562;2024-01-30T12:52:09;10.95;;;7.97;;
62332;SDS011;48624;49.812;8.562;2024-01-30T12:54:37;10.75;;;7.47;;
62332;SDS011;48624;49.812;8.562;2024-01-30T12:57:02;11.55;;;9.20;;
62332;SDS011;48624;49.812;8.562;2024-01-30T12:59:28;10.32;;;7.75;;
62332;SDS011;48624;49.812;8.562;2024-01-30T13:01:54;15.55;;;7.88;;
62332;SDS011;48624;49.812;8.562;2024-01-30T13:04:20;12.38;;;7.82;;
62332;SDS011;48624;49.812;8.562;2024-01-30T13:06:48;12.18;;;8.55;;
62332;SDS011;48624;49.812;8.562;2024-01-30T13:09:13;13.65;;;9.20;;
62332;SDS011;48624;49.812;8.562;2024-01-30T13:11:39;23.23;;;9.07;;
62332;SDS011;48624;49.812;8.562;2024-01-30T13:14:04;10.65;;;9.13;;
62332;SDS011;48624;49.812;8.562;2024-01-30T13:16:29;11.98;;;8.57;;
62332;SDS011;48624;49.812;8.562;2024-01-30T13:18:55;10.48;;;8.05;;
62332;SDS011;48624;49.812;8.562;2024-01-30T13:21:20;11.82;;;9.07;;
62332;SDS011;48624;49.812;8.562;2024-01-30T13:23:46;9.55;;;7.82;;
62332;SDS011;48624;49.812;8.562;2024-01-30T13:26:12;11.93;;;8.73;;
62332;SDS011;48624;49.812;8.562;2024-01-30T13:28:38;13.38;;;7.35;;
62332;SDS011;48624;49.812;8.562;2024-01-30T13:31:03;10.77;;;7.57;;
62332;SDS011;48624;49.812;8.562;2024-01-30T13:33:30;11.95;;;8.32;;
62332;SDS011;48624;49.812;8.562;2024-01-30T13:35:56;10.48;;;8.45;;
62332;SDS011;48624;49.812;8.562;2024-01-30T13:38:22;10.80;;;7.88;;
62332;SDS011;48624;49.812;8.562;2024-01-30T13:40:48;19.17;;;9.27;;
62332;SDS011;48624;49.812;8.562;2024-01-30T13:43:13;12.82;;;9.20;;
62332;SDS011;48624;49.812;8.562;2024-01-30T13:45:38;11.95;;;9.27;;
62332;SDS011;48624;49.812;8.562;2024-01-30T13:48:04;14.27;;;9.18;;
62332;SDS011;48624;49.812;8.562;2024-01-30T13:50:29;17.60;;;9.98;;
62332;SDS011;48624;49.812;8.562;2024-01-30T13:52:55;15.52;;;9.85;;
62332;SDS011;48624;49.812;8.562;2024-01-30T13:55:20;18.40;;;10.60;;
62332;SDS011;48624;49.812;8.562;2024-01-30T13:57:46;15.15;;;11.48;;
62332;SDS011;48624;49.812;8.562;2024-01-30T14:00:11;10.10;;;8.70;;
62332;SDS011;48624;49.812;8.562;2024-01-30T14:02:37;13.68;;;8.52;;
62332;SDS011;48624;49.812;8.562;2024-01-30T14:05:03;14.18;;;9.52;;
62332;SDS011;48624;49.812;8.562;2024-01-30T14:07:29;14.52;;;9.85;;
62332;SDS011;48624;49.812;8.562;2024-01-30T14:09:55;12.48;;;9.40;;
62332;SDS011;48624;49.812;8.562;2024-01-30T14:12:20;11.80;;;9.20;;
62332;SDS011;48624;49.812;8.562;2024-01-30T14:14:46;14.13;;;9.32;;
62332;SDS011;48624;49.812;8.562;2024-01-30T14:17:11;10.85;;;8.13;;